sensor_id;sensor_type;location;lat;lon;timestamp;P1;durP1;ratioP1;P2;durP2;ratioP2
9948;SDS011;5013;51.840;8.276;2023-05-27T00:01:47;22.00;;;6.03;;
9948;SDS011;5013;51.840;8.276;2023-05-27T00:04:14;17.07;;;5.87;;
9948;SDS011;5013;51.840;8.276;2023-05-27T00:06:39;20.27;;;6.57;;
9948;SDS011;5013;51.840;8.276;2023-05-27T00:09:05;17.43;;;6.60;;
9948;SDS011;5013;51.840;8.276;2023-05-27T00:11:30;19.10;;;6.43;;
9948;SDS011;5013;51.840;8.276;2023-05-27T00:13:56;15.23;;;6.60;;
9948;SDS011;5013;51.840;8.276;2023-05-27T00:16:22;21.57;;;7.07;;
9948;SDS011;5013;51.840;8.276;2023-05-27T00:18:48;14.83;;;6.33;;
9948;SDS011;5013;51.840;8.276;2023-05-27T00:21:14;19.80;;;6.20;;
9948;SDS011;5013;51.840;8.276;2023-05-27T00:23:41;14.70;;;6.03;;
9948;SDS011;5013;51.840;8.276;2023-05-27T00:26:09;16.73;;;5.80;;
9948;SDS011;5013;51.840;8.276;2023-05-27T00:28:35;20.77;;;6.67;;
9948;SDS011;5013;51.840;8.276;2023-05-27T00:31:00;12.63;;;6.07;;
9948;SDS011;5013;51.840;8.276;2023-05-27T00:33:26;19.90;;;6.77;;
9948;SDS011;5013;51.840;8.276;2023-05-27T00:35:52;10.97;;;5.53;;
9948;SDS011;5013;51.840;8.276;2023-05-27T00:38:18;16.93;;;6.07;;
9948;SDS011;5013;51.840;8.276;2023-05-27T00:40:43;18.77;;;6.27;;
9948;SDS011;5013;51.840;8.276;2023-05-27T00:43:10;13.50;;;5.33;;
9948;SDS011;5013;51.840;8.276;2023-05-27T00:45:36;14.93;;;5.83;;
9948;SDS011;5013;51.840;8.276;2023-05-27T00:48:02;14.30;;;5.93;;
9948;SDS011;5013;51.840;8.276;2023-05-27T00:50:28;13.80;;;5.57;;
9948;SDS011;5013;51.840;8.276;2023-05-27T00:52:54;14.70;;;5.60;;
9948;SDS011;5013;51.840;8.276;2023-05-27T00:55:23;16.00;;;5.63;;
9948;SDS011;5013;51.840;8.276;2023-05-27T00:57:50;12.10;;;5.20;;
9948;SDS011;5013;51.840;8.276;2023-05-27T01:00:18;17.77;;;6.07;;
9948;SDS011;5013;51.840;8.276;2023-05-27T01:02:44;14.13;;;5.77;;
9948;SDS011;5013;51.840;8.276;2023-05-27T01:05:10;12.47;;;6.03;;
9948;SDS011;5013;51.840;8.276;2023-05-27T01:07:57;17.40;;;5.70;;
9948;SDS011;5013;51.840;8.276;2023-05-27T01:10:46;19.67;;;6.30;;
9948;SDS011;5013;51.840;8.276;2023-05-27T01:13:22;14.87;;;6.03;;
9948;SDS011;5013;51.840;8.276;2023-05-27T01:16:11;14.20;;;5.53;;
9948;SDS011;5013;51.840;8.276;2023-05-27T01:18:39;18.27;;;6.93;;
9948;SDS011;5013;51.840;8.276;2023-05-27T01:21:09;13.77;;;5.80;;
9948;SDS011;5013;51.840;8.276;2023-05-27T01:23:41;17.00;;;7.00;;
9948;SDS011;5013;51.840;8.276;2023-05-27T01:26:07;14.63;;;6.17;;
9948;SDS011;5013;51.840;8.276;2023-05-27T01:28:33;13.73;;;5.87;;
9948;SDS011;5013;51.840;8.276;2023-05-27T01:31:10;22.13;;;7.00;;
9948;SDS011;5013;51.840;8.276;2023-05-27T01:33:40;15.20;;;6.97;;
9948;SDS011;5013;51.840;8.276;2023-05-27T01:36:16;18.57;;;7.13;;
9948;SDS011;5013;51.840;8.276;2023-05-27T01:38:46;12.43;;;5.53;;
9948;SDS011;5013;51.840;8.276;2023-05-27T01:41:14;15.50;;;6.37;;
9948;SDS011;5013;51.840;8.276;2023-05-27T01:43:40;20.17;;;6.57;;
9948;SDS011;5013;51.840;8.276;2023-05-27T01:46:07;15.53;;;6.23;;
9948;SDS011;5013;51.840;8.276;2023-05-27T01:48:32;11.63;;;6.03;;
9948;SDS011;5013;51.840;8.276;2023-05-27T01:50:58;16.73;;;6.23;;
9948;SDS011;5013;51.840;8.276;2023-05-27T01:53:24;18.90;;;7.10;;
9948;SDS011;5013;51.840;8.276;2023-05-27T01:55:49;16.23;;;6.57;;
9948;SDS011;5013;51.840;8.276;2023-05-27T01:58:15;11.30;;;6.10;;
9948;SDS011;5013;51.840;8.276;2023-05-27T02:00:40;24.27;;;6.40;;
9948;SDS011;5013;51.840;8.276;2023-05-27T02:03:06;15.63;;;6.17;;
9948;SDS011;5013;51.840;8.276;2023-05-27T02:05:32;21.67;;;7.13;;
9948;SDS011;5013;51.840;8.276;2023-05-27T02:07:58;19.90;;;6.83;;
9948;SDS011;5013;51.840;8.276;2023-05-27T02:10:23;15.97;;;6.07;;
9948;SDS011;5013;51.840;8.276;2023-05-27T02:12:49;13.67;;;5.97;;
9948;SDS011;5013;51.840;8.276;2023-05-27T02:15:14;17.00;;;6.50;;
9948;SDS011;5013;51.840;8.276;2023-05-27T02:17:40;12.30;;;6.17;;
9948;SDS011;5013;51.840;8.276;2023-05-27T02:20:06;15.43;;;5.93;;
9948;SDS011;5013;51.840;8.276;2023-05-27T02:22:32;12.70;;;5.93;;
9948;SDS011;5013;51.840;8.276;2023-05-27T02:24:57;17.63;;;6.37;;
9948;SDS011;5013;51.840;8.276;2023-05-27T02:27:23;11.87;;;5.87;;
9948;SDS011;5013;51.840;8.276;2023-05-27T02:29:48;16.10;;;6.20;;
9948;SDS011;5013;51.840;8.276;2023-05-27T02:32:14;18.40;;;6.20;;
9948;SDS011;5013;51.840;8.276;2023-05-27T02:34:40;16.57;;;6.80;;
9948;SDS011;5013;51.840;8.276;2023-05-27T02:37:06;19.60;;;6.67;;
9948;SDS011;5013;51.840;8.276;2023-05-27T02:39:32;21.03;;;6.73;;
9948;SDS011;5013;51.840;8.276;2023-05-27T02:41:57;17.03;;;7.00;;
9948;SDS011;5013;51.840;8.276;2023-05-27T02:44:23;15.10;;;6.40;;
9948;SDS011;5013;51.840;8.276;2023-05-27T02:46:48;15.87;;;6.87;;
9948;SDS011;5013;51.840;8.276;2023-05-27T02:49:14;18.43;;;6.60;;
9948;SDS011;5013;51.840;8.276;2023-05-27T02:51:40;16.47;;;6.93;;
9948;SDS011;5013;51.840;8.276;2023-05-27T02:54:05;15.33;;;6.30;;
9948;SDS011;5013;51.840;8.276;2023-05-27T02:56:31;12.60;;;6.03;;
9948;SDS011;5013;51.840;8.276;2023-05-27T02:58:57;15.23;;;6.40;;
9948;SDS011;5013;51.840;8.276;2023-05-27T03:01:22;11.67;;;6.13;;
9948;SDS011;5013;51.840;8.276;2023-05-27T03:03:48;20.50;;;7.17;;
9948;SDS011;5013;51.840;8.276;2023-05-27T03:06:13;19.33;;;7.07;;
9948;SDS011;5013;51.840;8.276;2023-05-27T03:08:39;15.10;;;6.63;;
9948;SDS011;5013;51.840;8.276;2023-05-27T03:11:05;16.37;;;7.20;;
9948;SDS011;5013;51.840;8.276;2023-05-27T03:13:30;19.93;;;7.23;;
9948;SDS011;5013;51.840;8.276;2023-05-27T03:15:56;16.50;;;6.87;;
9948;SDS011;5013;51.840;8.276;2023-05-27T03:18:23;9.63;;;6.83;;
9948;SDS011;5013;51.840;8.276;2023-05-27T03:20:48;16.53;;;7.03;;
9948;SDS011;5013;51.840;8.276;2023-05-27T03:23:15;21.33;;;6.93;;
9948;SDS011;5013;51.840;8.276;2023-05-27T03:25:40;17.17;;;6.87;;
9948;SDS011;5013;51.840;8.276;2023-05-27T03:28:06;17.80;;;7.20;;
9948;SDS011;5013;51.840;8.276;2023-05-27T03:30:32;17.93;;;7.53;;
9948;SDS011;5013;51.840;8.276;2023-05-27T03:32:57;17.80;;;7.30;;
9948;SDS011;5013;51.840;8.276;2023-05-27T03:35:23;11.07;;;7.03;;
9948;SDS011;5013;51.840;8.276;2023-05-27T03:37:48;18.50;;;7.43;;
9948;SDS011;5013;51.840;8.276;2023-05-27T03:40:14;13.17;;;6.87;;
9948;SDS011;5013;51.840;8.276;2023-05-27T03:42:40;12.97;;;6.47;;
9948;SDS011;5013;51.840;8.276;2023-05-27T03:45:05;19.40;;;7.90;;
9948;SDS011;5013;51.840;8.276;2023-05-27T03:47:32;18.60;;;7.47;;
9948;SDS011;5013;51.840;8.276;2023-05-27T03:49:59;16.53;;;7.27;;
9948;SDS011;5013;51.840;8.276;2023-05-27T03:52:25;16.63;;;7.60;;
9948;SDS011;5013;51.840;8.276;2023-05-27T03:54:51;17.83;;;7.27;;
9948;SDS011;5013;51.840;8.276;2023-05-27T03:57:16;11.03;;;6.13;;
9948;SDS011;5013;51.840;8.276;2023-05-27T03:59:42;17.80;;;7.17;;
9948;SDS011;5013;51.840;8.276;2023-05-27T04:02:08;21.27;;;7.13;;
9948;SDS011;5013;51.840;8.276;2023-05-27T04:04:33;13.93;;;6.37;;
9948;SDS011;5013;51.840;8.276;2023-05-27T04:06:59;17.73;;;7.30;;
9948;SDS011;5013;51.840;8.276;2023-05-27T04:09:26;15.67;;;7.17;;
9948;SDS011;5013;51.840;8.276;2023-05-27T04:11:51;19.00;;;7.17;;
9948;SDS011;5013;51.840;8.276;2023-05-27T04:14:17;13.87;;;6.40;;
9948;SDS011;5013;51.840;8.276;2023-05-27T04:16:43;11.77;;;6.23;;
9948;SDS011;5013;51.840;8.276;2023-05-27T04:19:08;12.43;;;6.40;;
9948;SDS011;5013;51.840;8.276;2023-05-27T04:21:34;15.37;;;6.40;;
9948;SDS011;5013;51.840;8.276;2023-05-27T04:24:01;13.37;;;6.13;;
9948;SDS011;5013;51.840;8.276;2023-05-27T04:26:27;13.13;;;6.40;;
9948;SDS011;5013;51.840;8.276;2023-05-27T04:28:53;14.83;;;6.33;;
9948;SDS011;5013;51.840;8.276;2023-05-27T04:31:19;14.00;;;6.40;;
9948;SDS011;5013;51.840;8.276;2023-05-27T04:33:44;13.87;;;6.87;;
9948;SDS011;5013;51.840;8.276;2023-05-27T04:36:10;15.00;;;6.43;;
9948;SDS011;5013;51.840;8.276;2023-05-27T04:38:36;15.27;;;6.27;;
9948;SDS011;5013;51.840;8.276;2023-05-27T04:41:02;15.47;;;7.07;;
9948;SDS011;5013;51.840;8.276;2023-05-27T04:43:28;16.67;;;6.13;;
9948;SDS011;5013;51.840;8.276;2023-05-27T04:45:55;17.40;;;7.10;;
9948;SDS011;5013;51.840;8.276;2023-05-27T04:48:21;12.90;;;6.20;;
9948;SDS011;5013;51.840;8.276;2023-05-27T04:50:49;14.23;;;6.80;;
9948;SDS011;5013;51.840;8.276;2023-05-27T04:53:17;15.63;;;6.13;;
9948;SDS011;5013;51.840;8.276;2023-05-27T04:55:43;12.23;;;6.00;;
9948;SDS011;5013;51.840;8.276;2023-05-27T04:58:10;13.13;;;6.27;;
9948;SDS011;5013;51.840;8.276;2023-05-27T05:00:36;12.17;;;6.17;;
9948;SDS011;5013;51.840;8.276;2023-05-27T05:03:04;12.90;;;5.67;;
9948;SDS011;5013;51.840;8.276;2023-05-27T05:05:30;14.77;;;5.73;;
9948;SDS011;5013;51.840;8.276;2023-05-27T05:07:56;26.27;;;7.07;;
9948;SDS011;5013;51.840;8.276;2023-05-27T05:10:22;17.63;;;5.73;;
9948;SDS011;5013;51.840;8.276;2023-05-27T05:12:48;14.47;;;6.10;;
9948;SDS011;5013;51.840;8.276;2023-05-27T05:15:14;12.27;;;5.80;;
9948;SDS011;5013;51.840;8.276;2023-05-27T05:17:40;19.80;;;6.47;;
9948;SDS011;5013;51.840;8.276;2023-05-27T05:20:06;15.53;;;6.37;;
9948;SDS011;5013;51.840;8.276;2023-05-27T05:22:33;18.73;;;6.83;;
9948;SDS011;5013;51.840;8.276;2023-05-27T05:24:59;17.27;;;6.30;;
9948;SDS011;5013;51.840;8.276;2023-05-27T05:27:26;21.83;;;6.43;;
9948;SDS011;5013;51.840;8.276;2023-05-27T05:29:52;20.13;;;6.67;;
9948;SDS011;5013;51.840;8.276;2023-05-27T05:32:18;16.60;;;6.50;;
9948;SDS011;5013;51.840;8.276;2023-05-27T05:34:44;19.07;;;5.80;;
9948;SDS011;5013;51.840;8.276;2023-05-27T05:37:10;16.83;;;5.97;;
9948;SDS011;5013;51.840;8.276;2023-05-27T05:39:40;20.17;;;6.10;;
9948;SDS011;5013;51.840;8.276;2023-05-27T05:42:07;14.43;;;5.40;;
9948;SDS011;5013;51.840;8.276;2023-05-27T05:44:32;20.43;;;6.70;;
9948;SDS011;5013;51.840;8.276;2023-05-27T05:46:59;20.80;;;6.80;;
9948;SDS011;5013;51.840;8.276;2023-05-27T05:49:25;19.17;;;6.67;;
9948;SDS011;5013;51.840;8.276;2023-05-27T05:51:50;24.17;;;6.40;;
9948;SDS011;5013;51.840;8.276;2023-05-27T05:54:16;19.00;;;5.77;;
9948;SDS011;5013;51.840;8.276;2023-05-27T05:56:41;23.23;;;6.37;;
9948;SDS011;5013;51.840;8.276;2023-05-27T05:59:07;21.03;;;6.50;;
9948;SDS011;5013;51.840;8.276;2023-05-27T06:01:32;17.67;;;6.07;;
9948;SDS011;5013;51.840;8.276;2023-05-27T06:03:58;16.10;;;5.80;;
9948;SDS011;5013;51.840;8.276;2023-05-27T06:06:29;22.13;;;6.87;;
9948;SDS011;5013;51.840;8.276;2023-05-27T06:08:55;16.47;;;6.43;;
9948;SDS011;5013;51.840;8.276;2023-05-27T06:11:20;18.27;;;6.00;;
9948;SDS011;5013;51.840;8.276;2023-05-27T06:13:46;19.30;;;6.97;;
9948;SDS011;5013;51.840;8.276;2023-05-27T06:16:12;18.20;;;6.97;;
9948;SDS011;5013;51.840;8.276;2023-05-27T06:18:38;19.67;;;7.43;;
9948;SDS011;5013;51.840;8.276;2023-05-27T06:21:03;16.03;;;6.63;;
9948;SDS011;5013;51.840;8.276;2023-05-27T06:23:29;17.97;;;6.23;;
9948;SDS011;5013;51.840;8.276;2023-05-27T06:25:55;18.13;;;7.80;;
9948;SDS011;5013;51.840;8.276;2023-05-27T06:28:20;22.53;;;7.27;;
9948;SDS011;5013;51.840;8.276;2023-05-27T06:30:46;21.90;;;7.20;;
9948;SDS011;5013;51.840;8.276;2023-05-27T06:33:11;18.97;;;7.00;;
9948;SDS011;5013;51.840;8.276;2023-05-27T06:35:37;20.53;;;6.70;;
9948;SDS011;5013;51.840;8.276;2023-05-27T06:38:02;25.20;;;6.97;;
9948;SDS011;5013;51.840;8.276;2023-05-27T06:40:28;19.83;;;7.10;;
9948;SDS011;5013;51.840;8.276;2023-05-27T06:42:54;12.80;;;5.50;;
9948;SDS011;5013;51.840;8.276;2023-05-27T06:45:19;19.13;;;5.63;;
9948;SDS011;5013;51.840;8.276;2023-05-27T06:47:45;14.23;;;6.23;;
9948;SDS011;5013;51.840;8.276;2023-05-27T06:50:11;15.93;;;5.70;;
9948;SDS011;5013;51.840;8.276;2023-05-27T06:52:36;15.80;;;6.27;;
9948;SDS011;5013;51.840;8.276;2023-05-27T06:55:02;17.47;;;6.27;;
9948;SDS011;5013;51.840;8.276;2023-05-27T06:57:28;16.97;;;6.63;;
9948;SDS011;5013;51.840;8.276;2023-05-27T06:59:54;17.77;;;6.90;;
9948;SDS011;5013;51.840;8.276;2023-05-27T07:02:20;23.47;;;8.00;;
9948;SDS011;5013;51.840;8.276;2023-05-27T07:04:46;24.17;;;7.57;;
9948;SDS011;5013;51.840;8.276;2023-05-27T07:07:11;25.80;;;7.47;;
9948;SDS011;5013;51.840;8.276;2023-05-27T07:09:37;15.57;;;6.67;;
9948;SDS011;5013;51.840;8.276;2023-05-27T07:12:03;17.70;;;6.87;;
9948;SDS011;5013;51.840;8.276;2023-05-27T07:14:28;14.63;;;6.30;;
9948;SDS011;5013;51.840;8.276;2023-05-27T07:16:57;19.73;;;6.63;;
9948;SDS011;5013;51.840;8.276;2023-05-27T07:19:23;17.93;;;6.63;;
9948;SDS011;5013;51.840;8.276;2023-05-27T07:21:48;25.77;;;7.50;;
9948;SDS011;5013;51.840;8.276;2023-05-27T07:24:14;26.93;;;7.30;;
9948;SDS011;5013;51.840;8.276;2023-05-27T07:26:40;19.63;;;6.50;;
9948;SDS011;5013;51.840;8.276;2023-05-27T07:29:05;18.43;;;6.57;;
9948;SDS011;5013;51.840;8.276;2023-05-27T07:31:31;14.20;;;6.87;;
9948;SDS011;5013;51.840;8.276;2023-05-27T07:33:57;22.67;;;7.60;;
9948;SDS011;5013;51.840;8.276;2023-05-27T07:36:22;20.83;;;6.53;;
9948;SDS011;5013;51.840;8.276;2023-05-27T07:38:48;20.97;;;7.53;;
9948;SDS011;5013;51.840;8.276;2023-05-27T07:41:14;20.03;;;6.60;;
9948;SDS011;5013;51.840;8.276;2023-05-27T07:43:40;18.07;;;6.63;;
9948;SDS011;5013;51.840;8.276;2023-05-27T07:46:06;17.63;;;7.07;;
9948;SDS011;5013;51.840;8.276;2023-05-27T07:48:31;18.17;;;6.83;;
9948;SDS011;5013;51.840;8.276;2023-05-27T07:50:57;17.93;;;6.30;;
9948;SDS011;5013;51.840;8.276;2023-05-27T07:53:26;19.80;;;6.50;;
9948;SDS011;5013;51.840;8.276;2023-05-27T07:55:51;18.40;;;6.67;;
9948;SDS011;5013;51.840;8.276;2023-05-27T07:58:17;18.47;;;6.60;;
9948;SDS011;5013;51.840;8.276;2023-05-27T08:00:42;18.70;;;6.20;;
9948;SDS011;5013;51.840;8.276;2023-05-27T08:03:08;17.20;;;6.53;;
9948;SDS011;5013;51.840;8.276;2023-05-27T08:05:33;18.93;;;6.70;;
9948;SDS011;5013;51.840;8.276;2023-05-27T08:07:59;19.83;;;6.73;;
9948;SDS011;5013;51.840;8.276;2023-05-27T08:10:25;18.17;;;6.77;;
9948;SDS011;5013;51.840;8.276;2023-05-27T08:12:51;17.37;;;6.07;;
9948;SDS011;5013;51.840;8.276;2023-05-27T08:15:17;14.57;;;6.00;;
9948;SDS011;5013;51.840;8.276;2023-05-27T08:17:43;14.70;;;6.07;;
9948;SDS011;5013;51.840;8.276;2023-05-27T08:20:10;18.60;;;6.30;;
9948;SDS011;5013;51.840;8.276;2023-05-27T08:22:36;19.90;;;7.63;;
9948;SDS011;5013;51.840;8.276;2023-05-27T08:25:02;23.27;;;7.30;;
9948;SDS011;5013;51.840;8.276;2023-05-27T08:30:17;12.40;;;6.40;;
9948;SDS011;5013;51.840;8.276;2023-05-27T08:32:44;15.97;;;6.70;;
9948;SDS011;5013;51.840;8.276;2023-05-27T08:35:10;18.60;;;6.30;;
9948;SDS011;5013;51.840;8.276;2023-05-27T08:37:36;12.67;;;6.40;;
9948;SDS011;5013;51.840;8.276;2023-05-27T08:40:03;13.63;;;6.57;;
9948;SDS011;5013;51.840;8.276;2023-05-27T08:42:32;19.50;;;7.27;;
9948;SDS011;5013;51.840;8.276;2023-05-27T08:44:58;14.30;;;6.13;;
9948;SDS011;5013;51.840;8.276;2023-05-27T08:47:28;19.27;;;6.30;;
9948;SDS011;5013;51.840;8.276;2023-05-27T08:49:54;15.50;;;6.30;;
9948;SDS011;5013;51.840;8.276;2023-05-27T08:52:20;14.70;;;6.20;;
9948;SDS011;5013;51.840;8.276;2023-05-27T08:54:48;14.43;;;5.73;;
9948;SDS011;5013;51.840;8.276;2023-05-27T08:57:15;17.57;;;6.03;;
9948;SDS011;5013;51.840;8.276;2023-05-27T08:59:45;17.30;;;5.73;;
9948;SDS011;5013;51.840;8.276;2023-05-27T09:02:12;14.83;;;6.47;;
9948;SDS011;5013;51.840;8.276;2023-05-27T09:04:41;13.13;;;6.60;;
9948;SDS011;5013;51.840;8.276;2023-05-27T09:07:07;21.87;;;6.60;;
9948;SDS011;5013;51.840;8.276;2023-05-27T09:09:33;18.87;;;6.20;;
9948;SDS011;5013;51.840;8.276;2023-05-27T09:11:59;20.43;;;7.23;;
9948;SDS011;5013;51.840;8.276;2023-05-27T09:14:28;16.20;;;6.50;;
9948;SDS011;5013;51.840;8.276;2023-05-27T09:16:54;12.33;;;6.50;;
9948;SDS011;5013;51.840;8.276;2023-05-27T09:19:29;15.40;;;6.07;;
9948;SDS011;5013;51.840;8.276;2023-05-27T09:21:55;19.30;;;7.10;;
9948;SDS011;5013;51.840;8.276;2023-05-27T09:24:24;17.23;;;7.00;;
9948;SDS011;5013;51.840;8.276;2023-05-27T09:26:50;14.00;;;6.70;;
9948;SDS011;5013;51.840;8.276;2023-05-27T09:29:18;17.13;;;6.23;;
9948;SDS011;5013;51.840;8.276;2023-05-27T09:31:44;15.93;;;6.60;;
9948;SDS011;5013;51.840;8.276;2023-05-27T09:34:14;14.30;;;6.80;;
9948;SDS011;5013;51.840;8.276;2023-05-27T09:36:47;11.07;;;5.63;;
9948;SDS011;5013;51.840;8.276;2023-05-27T09:39:16;12.73;;;6.17;;
9948;SDS011;5013;51.840;8.276;2023-05-27T09:41:43;22.90;;;7.37;;
9948;SDS011;5013;51.840;8.276;2023-05-27T09:44:15;17.70;;;6.37;;
9948;SDS011;5013;51.840;8.276;2023-05-27T09:46:40;16.33;;;6.40;;
9948;SDS011;5013;51.840;8.276;2023-05-27T09:49:09;17.23;;;6.83;;
9948;SDS011;5013;51.840;8.276;2023-05-27T09:51:35;12.17;;;5.20;;
9948;SDS011;5013;51.840;8.276;2023-05-27T09:54:03;18.03;;;6.57;;
9948;SDS011;5013;51.840;8.276;2023-05-27T09:56:29;24.33;;;7.00;;
9948;SDS011;5013;51.840;8.276;2023-05-27T09:58:56;16.83;;;6.50;;
9948;SDS011;5013;51.840;8.276;2023-05-27T10:01:26;16.87;;;6.33;;
9948;SDS011;5013;51.840;8.276;2023-05-27T10:03:56;17.00;;;6.23;;
9948;SDS011;5013;51.840;8.276;2023-05-27T10:06:22;18.73;;;7.00;;
9948;SDS011;5013;51.840;8.276;2023-05-27T10:08:49;15.67;;;6.40;;
9948;SDS011;5013;51.840;8.276;2023-05-27T10:11:18;22.53;;;7.90;;
9948;SDS011;5013;51.840;8.276;2023-05-27T10:13:44;15.37;;;6.03;;
9948;SDS011;5013;51.840;8.276;2023-05-27T10:16:20;12.37;;;5.80;;
9948;SDS011;5013;51.840;8.276;2023-05-27T10:18:46;10.17;;;5.63;;
9948;SDS011;5013;51.840;8.276;2023-05-27T10:21:18;14.53;;;5.80;;
9948;SDS011;5013;51.840;8.276;2023-05-27T10:24:01;18.97;;;6.67;;
9948;SDS011;5013;51.840;8.276;2023-05-27T10:26:35;18.27;;;6.10;;
9948;SDS011;5013;51.840;8.276;2023-05-27T10:29:10;13.83;;;6.43;;
9948;SDS011;5013;51.840;8.276;2023-05-27T10:34:14;12.43;;;5.50;;
9948;SDS011;5013;51.840;8.276;2023-05-27T10:36:40;14.15;;;6.20;;
9948;SDS011;5013;51.840;8.276;2023-05-27T10:39:11;11.35;;;5.53;;
9948;SDS011;5013;51.840;8.276;2023-05-27T10:41:42;24.37;;;6.67;;
9948;SDS011;5013;51.840;8.276;2023-05-27T10:44:07;13.70;;;5.80;;
9948;SDS011;5013;51.840;8.276;2023-05-27T10:46:40;17.33;;;5.80;;
9948;SDS011;5013;51.840;8.276;2023-05-27T10:49:14;15.20;;;6.33;;
9948;SDS011;5013;51.840;8.276;2023-05-27T10:51:47;13.33;;;5.90;;
9948;SDS011;5013;51.840;8.276;2023-05-27T10:54:14;17.90;;;6.60;;
9948;SDS011;5013;51.840;8.276;2023-05-27T10:56:50;15.60;;;6.23;;
9948;SDS011;5013;51.840;8.276;2023-05-27T10:59:20;16.27;;;6.20;;
9948;SDS011;5013;51.840;8.276;2023-05-27T11:01:49;19.03;;;6.67;;
9948;SDS011;5013;51.840;8.276;2023-05-27T11:04:17;13.10;;;6.10;;
9948;SDS011;5013;51.840;8.276;2023-05-27T11:06:55;13.32;;;6.13;;
9948;SDS011;5013;51.840;8.276;2023-05-27T11:09:21;14.27;;;6.00;;
9948;SDS011;5013;51.840;8.276;2023-05-27T11:11:47;12.43;;;5.85;;
9948;SDS011;5013;51.840;8.276;2023-05-27T11:14:13;14.60;;;6.15;;
9948;SDS011;5013;51.840;8.276;2023-05-27T11:16:38;13.00;;;5.82;;
9948;SDS011;5013;51.840;8.276;2023-05-27T11:19:04;12.63;;;5.97;;
9948;SDS011;5013;51.840;8.276;2023-05-27T11:21:29;14.85;;;5.75;;
9948;SDS011;5013;51.840;8.276;2023-05-27T11:23:55;13.98;;;5.72;;
9948;SDS011;5013;51.840;8.276;2023-05-27T11:26:24;11.30;;;5.10;;
9948;SDS011;5013;51.840;8.276;2023-05-27T11:28:51;11.68;;;5.65;;
9948;SDS011;5013;51.840;8.276;2023-05-27T11:31:30;11.80;;;5.38;;
9948;SDS011;5013;51.840;8.276;2023-05-27T11:33:56;14.45;;;5.57;;
9948;SDS011;5013;51.840;8.276;2023-05-27T11:36:25;11.02;;;5.28;;
9948;SDS011;5013;51.840;8.276;2023-05-27T11:41:25;13.07;;;5.47;;
9948;SDS011;5013;51.840;8.276;2023-05-27T11:43:56;13.40;;;6.40;;
9948;SDS011;5013;51.840;8.276;2023-05-27T11:46:23;11.20;;;5.57;;
9948;SDS011;5013;51.840;8.276;2023-05-27T11:48:57;11.73;;;4.75;;
9948;SDS011;5013;51.840;8.276;2023-05-27T11:51:27;12.27;;;5.05;;
9948;SDS011;5013;51.840;8.276;2023-05-27T11:53:58;9.35;;;5.43;;
9948;SDS011;5013;51.840;8.276;2023-05-27T11:56:25;7.97;;;5.03;;
9948;SDS011;5013;51.840;8.276;2023-05-27T11:58:51;7.32;;;4.82;;
9948;SDS011;5013;51.840;8.276;2023-05-27T12:01:17;7.15;;;4.53;;
9948;SDS011;5013;51.840;8.276;2023-05-27T12:03:42;11.23;;;4.72;;
9948;SDS011;5013;51.840;8.276;2023-05-27T12:06:08;9.73;;;4.97;;
9948;SDS011;5013;51.840;8.276;2023-05-27T12:08:33;8.13;;;4.40;;
9948;SDS011;5013;51.840;8.276;2023-05-27T12:10:59;6.65;;;4.47;;
9948;SDS011;5013;51.840;8.276;2023-05-27T12:13:26;8.90;;;4.95;;
9948;SDS011;5013;51.840;8.276;2023-05-27T12:15:52;9.23;;;4.82;;
9948;SDS011;5013;51.840;8.276;2023-05-27T12:18:18;8.25;;;5.07;;
9948;SDS011;5013;51.840;8.276;2023-05-27T12:20:44;8.52;;;4.88;;
9948;SDS011;5013;51.840;8.276;2023-05-27T12:23:10;12.20;;;4.90;;
9948;SDS011;5013;51.840;8.276;2023-05-27T12:25:35;12.30;;;4.90;;
9948;SDS011;5013;51.840;8.276;2023-05-27T12:28:01;8.60;;;4.30;;
9948;SDS011;5013;51.840;8.276;2023-05-27T12:30:26;9.02;;;4.30;;
9948;SDS011;5013;51.840;8.276;2023-05-27T12:32:52;8.02;;;4.22;;
9948;SDS011;5013;51.840;8.276;2023-05-27T12:35:17;7.15;;;3.90;;
9948;SDS011;5013;51.840;8.276;2023-05-27T12:37:43;6.38;;;4.13;;
9948;SDS011;5013;51.840;8.276;2023-05-27T12:40:09;8.50;;;5.40;;
9948;SDS011;5013;51.840;8.276;2023-05-27T12:42:39;8.48;;;4.60;;
9948;SDS011;5013;51.840;8.276;2023-05-27T12:45:11;7.55;;;4.40;;
9948;SDS011;5013;51.840;8.276;2023-05-27T12:47:37;13.00;;;4.82;;
9948;SDS011;5013;51.840;8.276;2023-05-27T12:50:03;9.88;;;4.72;;
9948;SDS011;5013;51.840;8.276;2023-05-27T12:52:29;10.02;;;4.25;;
9948;SDS011;5013;51.840;8.276;2023-05-27T12:54:55;7.78;;;4.60;;
9948;SDS011;5013;51.840;8.276;2023-05-27T12:57:22;10.70;;;4.75;;
9948;SDS011;5013;51.840;8.276;2023-05-27T12:59:47;8.52;;;4.07;;
9948;SDS011;5013;51.840;8.276;2023-05-27T13:02:13;8.70;;;4.60;;
9948;SDS011;5013;51.840;8.276;2023-05-27T13:04:39;15.65;;;4.68;;
9948;SDS011;5013;51.840;8.276;2023-05-27T13:07:05;5.97;;;4.35;;
9948;SDS011;5013;51.840;8.276;2023-05-27T13:09:30;7.65;;;4.25;;
9948;SDS011;5013;51.840;8.276;2023-05-27T13:11:56;8.68;;;4.72;;
9948;SDS011;5013;51.840;8.276;2023-05-27T13:14:22;8.27;;;4.22;;
9948;SDS011;5013;51.840;8.276;2023-05-27T13:16:48;8.63;;;4.25;;
9948;SDS011;5013;51.840;8.276;2023-05-27T13:19:14;6.60;;;4.13;;
9948;SDS011;5013;51.840;8.276;2023-05-27T13:21:39;7.35;;;4.07;;
9948;SDS011;5013;51.840;8.276;2023-05-27T13:24:05;9.45;;;4.55;;
9948;SDS011;5013;51.840;8.276;2023-05-27T13:26:31;9.38;;;4.45;;
9948;SDS011;5013;51.840;8.276;2023-05-27T13:28:58;8.18;;;4.80;;
9948;SDS011;5013;51.840;8.276;2023-05-27T13:31:23;7.25;;;4.07;;
9948;SDS011;5013;51.840;8.276;2023-05-27T13:33:49;8.57;;;4.20;;
9948;SDS011;5013;51.840;8.276;2023-05-27T13:36:15;7.40;;;3.70;;
9948;SDS011;5013;51.840;8.276;2023-05-27T13:38:41;6.65;;;3.90;;
9948;SDS011;5013;51.840;8.276;2023-05-27T13:41:06;7.15;;;3.70;;
9948;SDS011;5013;51.840;8.276;2023-05-27T13:43:32;7.18;;;3.83;;
9948;SDS011;5013;51.840;8.276;2023-05-27T13:45:58;6.22;;;3.83;;
9948;SDS011;5013;51.840;8.276;2023-05-27T13:48:23;7.18;;;3.80;;
9948;SDS011;5013;51.840;8.276;2023-05-27T13:50:49;7.15;;;4.00;;
9948;SDS011;5013;51.840;8.276;2023-05-27T13:53:15;6.70;;;3.83;;
9948;SDS011;5013;51.840;8.276;2023-05-27T13:55:40;5.60;;;3.63;;
9948;SDS011;5013;51.840;8.276;2023-05-27T13:58:07;7.70;;;4.80;;
9948;SDS011;5013;51.840;8.276;2023-05-27T14:00:33;5.95;;;4.10;;
9948;SDS011;5013;51.840;8.276;2023-05-27T14:02:58;6.93;;;4.30;;
9948;SDS011;5013;51.840;8.276;2023-05-27T14:05:24;7.00;;;4.32;;
9948;SDS011;5013;51.840;8.276;2023-05-27T14:07:51;6.95;;;4.38;;
9948;SDS011;5013;51.840;8.276;2023-05-27T14:10:17;9.77;;;4.93;;
9948;SDS011;5013;51.840;8.276;2023-05-27T14:12:43;7.10;;;4.70;;
9948;SDS011;5013;51.840;8.276;2023-05-27T14:15:08;4.90;;;4.30;;
9948;SDS011;5013;51.840;8.276;2023-05-27T14:17:34;7.30;;;4.15;;
9948;SDS011;5013;51.840;8.276;2023-05-27T14:20:00;10.88;;;5.22;;
9948;SDS011;5013;51.840;8.276;2023-05-27T14:22:27;13.63;;;5.00;;
9948;SDS011;5013;51.840;8.276;2023-05-27T14:24:52;8.93;;;5.38;;
9948;SDS011;5013;51.840;8.276;2023-05-27T14:27:18;10.65;;;4.88;;
9948;SDS011;5013;51.840;8.276;2023-05-27T14:29:43;8.40;;;4.53;;
9948;SDS011;5013;51.840;8.276;2023-05-27T14:32:09;8.38;;;4.50;;
9948;SDS011;5013;51.840;8.276;2023-05-27T14:34:38;8.63;;;4.13;;
9948;SDS011;5013;51.840;8.276;2023-05-27T14:37:03;7.28;;;4.38;;
9948;SDS011;5013;51.840;8.276;2023-05-27T14:39:29;7.22;;;4.45;;
9948;SDS011;5013;51.840;8.276;2023-05-27T14:41:55;6.75;;;3.78;;
9948;SDS011;5013;51.840;8.276;2023-05-27T14:44:20;5.93;;;4.00;;
9948;SDS011;5013;51.840;8.276;2023-05-27T14:46:46;6.80;;;4.15;;
9948;SDS011;5013;51.840;8.276;2023-05-27T14:49:11;7.00;;;4.28;;
9948;SDS011;5013;51.840;8.276;2023-05-27T14:51:37;5.07;;;3.95;;
9948;SDS011;5013;51.840;8.276;2023-05-27T14:54:02;6.18;;;3.75;;
9948;SDS011;5013;51.840;8.276;2023-05-27T14:56:28;11.50;;;3.85;;
9948;SDS011;5013;51.840;8.276;2023-05-27T14:58:54;6.20;;;3.75;;
9948;SDS011;5013;51.840;8.276;2023-05-27T15:01:19;6.85;;;4.20;;
9948;SDS011;5013;51.840;8.276;2023-05-27T15:03:45;8.20;;;4.45;;
9948;SDS011;5013;51.840;8.276;2023-05-27T15:06:10;10.73;;;4.57;;
9948;SDS011;5013;51.840;8.276;2023-05-27T15:08:37;9.80;;;4.63;;
9948;SDS011;5013;51.840;8.276;2023-05-27T15:11:03;6.75;;;3.85;;